sensor_id;sensor_type;location;lat;lon;timestamp;P1;durP1;ratioP1;P2;durP2;ratioP2
76606;SDS011;65498;50.916;4.698;2023-03-18T00:02:01;7.08;;;3.55;;
76606;SDS011;65498;50.916;4.698;2023-03-18T00:04:29;7.78;;;3.25;;
76606;SDS011;65498;50.916;4.698;2023-03-18T00:06:57;8.55;;;3.42;;
76606;SDS011;65498;50.916;4.698;2023-03-18T00:09:25;7.28;;;3.75;;
76606;SDS011;65498;50.916;4.698;2023-03-18T00:11:52;7.75;;;3.70;;
76606;SDS011;65498;50.916;4.698;2023-03-18T00:14:21;8.18;;;4.08;;
76606;SDS011;65498;50.916;4.698;2023-03-18T00:16:49;6.65;;;3.35;;
76606;SDS011;65498;50.916;4.698;2023-03-18T00:19:18;6.65;;;3.40;;
76606;SDS011;65498;50.916;4.698;2023-03-18T00:21:45;6.97;;;3.10;;
76606;SDS011;65498;50.916;4.698;2023-03-18T00:24:13;6.10;;;3.30;;
76606;SDS011;65498;50.916;4.698;2023-03-18T00:26:42;6.15;;;3.37;;
76606;SDS011;65498;50.916;4.698;2023-03-18T00:29:09;6.70;;;3.22;;
76606;SDS011;65498;50.916;4.698;2023-03-18T00:31:37;8.43;;;3.87;;
76606;SDS011;65498;50.916;4.698;2023-03-18T00:34:05;6.80;;;3.25;;
76606;SDS011;65498;50.916;4.698;2023-03-18T00:36:33;6.72;;;3.00;;
76606;SDS011;65498;50.916;4.698;2023-03-18T00:39:02;7.12;;;3.40;;
76606;SDS011;65498;50.916;4.698;2023-03-18T00:41:30;10.13;;;3.47;;
76606;SDS011;65498;50.916;4.698;2023-03-18T00:44:04;6.67;;;3.15;;
76606;SDS011;65498;50.916;4.698;2023-03-18T00:46:33;6.25;;;3.00;;
76606;SDS011;65498;50.916;4.698;2023-03-18T00:49:03;5.30;;;2.60;;
76606;SDS011;65498;50.916;4.698;2023-03-18T00:54:02;20.43;;;9.23;;
76606;SDS011;65498;50.916;4.698;2023-03-18T00:56:32;12.15;;;5.80;;
76606;SDS011;65498;50.916;4.698;2023-03-18T00:59:02;13.85;;;6.03;;
76606;SDS011;65498;50.916;4.698;2023-03-18T01:01:31;13.35;;;5.62;;
76606;SDS011;65498;50.916;4.698;2023-03-18T01:03:59;12.68;;;5.45;;
76606;SDS011;65498;50.916;4.698;2023-03-18T01:06:28;12.45;;;5.45;;
76606;SDS011;65498;50.916;4.698;2023-03-18T01:08:58;12.55;;;5.97;;
76606;SDS011;65498;50.916;4.698;2023-03-18T01:11:27;10.63;;;4.90;;
76606;SDS011;65498;50.916;4.698;2023-03-18T01:13:55;9.15;;;4.78;;
76606;SDS011;65498;50.916;4.698;2023-03-18T01:16:24;11.97;;;4.78;;
76606;SDS011;65498;50.916;4.698;2023-03-18T01:18:52;14.13;;;5.10;;
76606;SDS011;65498;50.916;4.698;2023-03-18T01:21:19;10.00;;;4.67;;
76606;SDS011;65498;50.916;4.698;2023-03-18T01:23:47;12.93;;;4.70;;
76606;SDS011;65498;50.916;4.698;2023-03-18T01:26:15;19.42;;;7.75;;
76606;SDS011;65498;50.916;4.698;2023-03-18T01:28:42;16.23;;;5.45;;
76606;SDS011;65498;50.916;4.698;2023-03-18T01:31:10;17.90;;;6.10;;
76606;SDS011;65498;50.916;4.698;2023-03-18T01:33:38;16.30;;;6.37;;
76606;SDS011;65498;50.916;4.698;2023-03-18T01:36:06;13.78;;;6.28;;
76606;SDS011;65498;50.916;4.698;2023-03-18T01:38:34;20.55;;;7.00;;
76606;SDS011;65498;50.916;4.698;2023-03-18T01:41:02;15.85;;;6.22;;
76606;SDS011;65498;50.916;4.698;2023-03-18T01:43:31;18.17;;;7.03;;
76606;SDS011;65498;50.916;4.698;2023-03-18T01:46:25;19.32;;;7.22;;
76606;SDS011;65498;50.916;4.698;2023-03-18T01:48:33;16.62;;;7.25;;
76606;SDS011;65498;50.916;4.698;2023-03-18T01:51:04;16.15;;;6.95;;
76606;SDS011;65498;50.916;4.698;2023-03-18T01:53:40;13.88;;;5.80;;
76606;SDS011;65498;50.916;4.698;2023-03-18T01:56:07;18.50;;;6.05;;
76606;SDS011;65498;50.916;4.698;2023-03-18T01:58:38;15.93;;;6.47;;
76606;SDS011;65498;50.916;4.698;2023-03-18T02:01:16;14.50;;;5.95;;
76606;SDS011;65498;50.916;4.698;2023-03-18T02:03:47;13.83;;;5.80;;
76606;SDS011;65498;50.916;4.698;2023-03-18T02:06:16;13.95;;;6.70;;
76606;SDS011;65498;50.916;4.698;2023-03-18T02:08:45;14.47;;;7.10;;
76606;SDS011;65498;50.916;4.698;2023-03-18T02:11:12;17.25;;;5.70;;
76606;SDS011;65498;50.916;4.698;2023-03-18T02:13:41;13.35;;;5.37;;
76606;SDS011;65498;50.916;4.698;2023-03-18T02:18:40;11.50;;;4.78;;
76606;SDS011;65498;50.916;4.698;2023-03-18T02:27:19;13.90;;;4.95;;
76606;SDS011;65498;50.916;4.698;2023-03-18T02:29:49;12.98;;;5.25;;
76606;SDS011;65498;50.916;4.698;2023-03-18T02:32:27;11.45;;;4.37;;
76606;SDS011;65498;50.916;4.698;2023-03-18T02:34:52;10.35;;;5.25;;
76606;SDS011;65498;50.916;4.698;2023-03-18T02:37:22;14.65;;;4.85;;
76606;SDS011;65498;50.916;4.698;2023-03-18T02:39:49;12.70;;;5.47;;
76606;SDS011;65498;50.916;4.698;2023-03-18T02:42:27;12.07;;;4.47;;
76606;SDS011;65498;50.916;4.698;2023-03-18T02:44:55;11.65;;;4.60;;
76606;SDS011;65498;50.916;4.698;2023-03-18T02:47:23;12.33;;;5.87;;
76606;SDS011;65498;50.916;4.698;2023-03-18T02:49:55;9.55;;;4.70;;
76606;SDS011;65498;50.916;4.698;2023-03-18T02:52:22;11.35;;;4.85;;
76606;SDS011;65498;50.916;4.698;2023-03-18T02:54:50;12.35;;;6.08;;
76606;SDS011;65498;50.916;4.698;2023-03-18T02:57:18;12.90;;;4.95;;
76606;SDS011;65498;50.916;4.698;2023-03-18T02:59:45;10.65;;;5.00;;
76606;SDS011;65498;50.916;4.698;2023-03-18T03:02:13;10.32;;;4.95;;
76606;SDS011;65498;50.916;4.698;2023-03-18T03:04:41;12.85;;;4.58;;
76606;SDS011;65498;50.916;4.698;2023-03-18T03:07:09;9.15;;;3.90;;
76606;SDS011;65498;50.916;4.698;2023-03-18T03:09:37;10.58;;;4.83;;
76606;SDS011;65498;50.916;4.698;2023-03-18T03:12:06;9.38;;;4.42;;
76606;SDS011;65498;50.916;4.698;2023-03-18T03:14:34;11.33;;;4.20;;
76606;SDS011;65498;50.916;4.698;2023-03-18T03:17:02;10.85;;;5.47;;
76606;SDS011;65498;50.916;4.698;2023-03-18T03:19:29;10.88;;;4.95;;
76606;SDS011;65498;50.916;4.698;2023-03-18T03:21:58;10.80;;;4.33;;
76606;SDS011;65498;50.916;4.698;2023-03-18T03:24:25;12.10;;;5.00;;
76606;SDS011;65498;50.916;4.698;2023-03-18T03:26:53;11.03;;;3.77;;
76606;SDS011;65498;50.916;4.698;2023-03-18T03:29:20;9.23;;;3.60;;
76606;SDS011;65498;50.916;4.698;2023-03-18T03:31:48;11.70;;;4.40;;
76606;SDS011;65498;50.916;4.698;2023-03-18T03:34:16;10.08;;;3.92;;
76606;SDS011;65498;50.916;4.698;2023-03-18T03:36:44;9.20;;;4.20;;
76606;SDS011;65498;50.916;4.698;2023-03-18T03:39:11;8.45;;;3.83;;
76606;SDS011;65498;50.916;4.698;2023-03-18T03:41:39;11.60;;;3.77;;
76606;SDS011;65498;50.916;4.698;2023-03-18T03:44:07;8.98;;;3.95;;
76606;SDS011;65498;50.916;4.698;2023-03-18T03:46:34;9.78;;;4.87;;
76606;SDS011;65498;50.916;4.698;2023-03-18T03:49:02;9.43;;;3.83;;
76606;SDS011;65498;50.916;4.698;2023-03-18T03:51:30;8.95;;;4.00;;
76606;SDS011;65498;50.916;4.698;2023-03-18T03:53:57;8.65;;;3.65;;
76606;SDS011;65498;50.916;4.698;2023-03-18T03:56:25;7.37;;;3.58;;
76606;SDS011;65498;50.916;4.698;2023-03-18T03:58:53;10.05;;;3.58;;
76606;SDS011;65498;50.916;4.698;2023-03-18T04:01:20;8.78;;;3.52;;
76606;SDS011;65498;50.916;4.698;2023-03-18T04:03:48;7.67;;;3.27;;
76606;SDS011;65498;50.916;4.698;2023-03-18T04:06:15;9.83;;;4.00;;
76606;SDS011;65498;50.916;4.698;2023-03-18T04:08:45;8.15;;;3.50;;
76606;SDS011;65498;50.916;4.698;2023-03-18T04:11:12;10.05;;;3.62;;
76606;SDS011;65498;50.916;4.698;2023-03-18T04:13:40;8.85;;;3.47;;
76606;SDS011;65498;50.916;4.698;2023-03-18T04:16:07;7.22;;;3.37;;
76606;SDS011;65498;50.916;4.698;2023-03-18T04:18:35;11.43;;;4.33;;
76606;SDS011;65498;50.916;4.698;2023-03-18T04:21:03;9.15;;;3.95;;
76606;SDS011;65498;50.916;4.698;2023-03-18T04:23:30;8.95;;;3.98;;
76606;SDS011;65498;50.916;4.698;2023-03-18T04:25:58;10.10;;;3.90;;
76606;SDS011;65498;50.916;4.698;2023-03-18T04:28:26;8.28;;;4.42;;
76606;SDS011;65498;50.916;4.698;2023-03-18T04:30:53;8.33;;;3.25;;
76606;SDS011;65498;50.916;4.698;2023-03-18T04:33:21;7.70;;;3.47;;
76606;SDS011;65498;50.916;4.698;2023-03-18T04:35:49;7.78;;;3.27;;
76606;SDS011;65498;50.916;4.698;2023-03-18T04:38:17;8.83;;;3.90;;
76606;SDS011;65498;50.916;4.698;2023-03-18T04:40:46;7.92;;;3.08;;
76606;SDS011;65498;50.916;4.698;2023-03-18T04:43:13;8.33;;;3.70;;
76606;SDS011;65498;50.916;4.698;2023-03-18T04:45:41;7.30;;;3.40;;
76606;SDS011;65498;50.916;4.698;2023-03-18T04:48:09;6.75;;;2.72;;
76606;SDS011;65498;50.916;4.698;2023-03-18T04:50:37;7.40;;;2.92;;
76606;SDS011;65498;50.916;4.698;2023-03-18T04:53:05;8.85;;;3.47;;
76606;SDS011;65498;50.916;4.698;2023-03-18T04:55:33;7.83;;;3.00;;
76606;SDS011;65498;50.916;4.698;2023-03-18T04:58:01;8.18;;;2.90;;
76606;SDS011;65498;50.916;4.698;2023-03-18T05:00:30;7.30;;;3.12;;
76606;SDS011;65498;50.916;4.698;2023-03-18T05:02:58;8.70;;;3.57;;
76606;SDS011;65498;50.916;4.698;2023-03-18T05:05:26;7.58;;;2.83;;
76606;SDS011;65498;50.916;4.698;2023-03-18T05:07:54;7.17;;;3.25;;
76606;SDS011;65498;50.916;4.698;2023-03-18T05:10:22;6.25;;;2.60;;
76606;SDS011;65498;50.916;4.698;2023-03-18T05:12:50;7.08;;;2.95;;
76606;SDS011;65498;50.916;4.698;2023-03-18T05:15:18;7.87;;;3.30;;
76606;SDS011;65498;50.916;4.698;2023-03-18T05:17:45;7.22;;;3.12;;
76606;SDS011;65498;50.916;4.698;2023-03-18T05:20:13;7.53;;;2.80;;
76606;SDS011;65498;50.916;4.698;2023-03-18T05:22:40;7.72;;;3.17;;
76606;SDS011;65498;50.916;4.698;2023-03-18T05:25:08;7.83;;;3.60;;
76606;SDS011;65498;50.916;4.698;2023-03-18T05:27:36;6.03;;;2.50;;
76606;SDS011;65498;50.916;4.698;2023-03-18T05:30:04;6.30;;;2.90;;
76606;SDS011;65498;50.916;4.698;2023-03-18T05:32:35;7.00;;;2.90;;
76606;SDS011;65498;50.916;4.698;2023-03-18T05:35:03;6.03;;;2.42;;
76606;SDS011;65498;50.916;4.698;2023-03-18T05:37:30;6.47;;;2.60;;
76606;SDS011;65498;50.916;4.698;2023-03-18T05:39:58;6.97;;;3.17;;
76606;SDS011;65498;50.916;4.698;2023-03-18T05:42:26;6.75;;;2.72;;
76606;SDS011;65498;50.916;4.698;2023-03-18T05:44:53;7.62;;;2.85;;
76606;SDS011;65498;50.916;4.698;2023-03-18T05:47:22;7.30;;;3.00;;
76606;SDS011;65498;50.916;4.698;2023-03-18T05:49:50;6.37;;;2.62;;
76606;SDS011;65498;50.916;4.698;2023-03-18T05:52:17;7.17;;;2.90;;
76606;SDS011;65498;50.916;4.698;2023-03-18T05:54:45;6.95;;;2.87;;
76606;SDS011;65498;50.916;4.698;2023-03-18T05:57:13;7.22;;;2.60;;
76606;SDS011;65498;50.916;4.698;2023-03-18T05:59:41;7.00;;;2.47;;
76606;SDS011;65498;50.916;4.698;2023-03-18T06:02:09;6.40;;;2.65;;
76606;SDS011;65498;50.916;4.698;2023-03-18T06:04:37;7.72;;;2.72;;
76606;SDS011;65498;50.916;4.698;2023-03-18T06:07:05;8.10;;;2.58;;
76606;SDS011;65498;50.916;4.698;2023-03-18T06:09:33;5.78;;;2.40;;
76606;SDS011;65498;50.916;4.698;2023-03-18T06:12:00;6.85;;;2.50;;
76606;SDS011;65498;50.916;4.698;2023-03-18T06:14:28;6.53;;;2.80;;
76606;SDS011;65498;50.916;4.698;2023-03-18T06:16:56;7.85;;;2.80;;
76606;SDS011;65498;50.916;4.698;2023-03-18T06:19:24;6.17;;;2.87;;
76606;SDS011;65498;50.916;4.698;2023-03-18T06:21:53;6.08;;;2.50;;
76606;SDS011;65498;50.916;4.698;2023-03-18T06:24:20;6.72;;;2.75;;
76606;SDS011;65498;50.916;4.698;2023-03-18T06:26:48;5.78;;;2.40;;
76606;SDS011;65498;50.916;4.698;2023-03-18T06:29:16;5.60;;;2.50;;
76606;SDS011;65498;50.916;4.698;2023-03-18T06:31:44;7.37;;;2.52;;
76606;SDS011;65498;50.916;4.698;2023-03-18T06:34:12;6.12;;;3.00;;
76606;SDS011;65498;50.916;4.698;2023-03-18T06:36:39;6.22;;;2.37;;
76606;SDS011;65498;50.916;4.698;2023-03-18T06:39:07;7.33;;;2.60;;
76606;SDS011;65498;50.916;4.698;2023-03-18T06:41:35;8.15;;;3.08;;
76606;SDS011;65498;50.916;4.698;2023-03-18T06:44:03;9.03;;;2.58;;
76606;SDS011;65498;50.916;4.698;2023-03-18T06:46:31;5.78;;;2.30;;
76606;SDS011;65498;50.916;4.698;2023-03-18T06:48:59;5.90;;;2.37;;
76606;SDS011;65498;50.916;4.698;2023-03-18T06:51:27;5.12;;;2.45;;
76606;SDS011;65498;50.916;4.698;2023-03-18T06:53:54;7.10;;;2.98;;
76606;SDS011;65498;50.916;4.698;2023-03-18T06:56:22;7.20;;;3.02;;
76606;SDS011;65498;50.916;4.698;2023-03-18T06:58:50;6.58;;;2.90;;
76606;SDS011;65498;50.916;4.698;2023-03-18T07:01:19;6.58;;;2.55;;
76606;SDS011;65498;50.916;4.698;2023-03-18T07:03:46;5.60;;;2.22;;
76606;SDS011;65498;50.916;4.698;2023-03-18T07:06:14;6.85;;;2.95;;
76606;SDS011;65498;50.916;4.698;2023-03-18T07:08:43;7.08;;;2.30;;
76606;SDS011;65498;50.916;4.698;2023-03-18T07:11:11;8.40;;;3.25;;
76606;SDS011;65498;50.916;4.698;2023-03-18T07:13:39;6.90;;;2.55;;
76606;SDS011;65498;50.916;4.698;2023-03-18T07:16:07;7.20;;;2.65;;
76606;SDS011;65498;50.916;4.698;2023-03-18T07:18:34;5.78;;;2.50;;
76606;SDS011;65498;50.916;4.698;2023-03-18T07:21:02;5.95;;;2.55;;
76606;SDS011;65498;50.916;4.698;2023-03-18T07:23:31;7.53;;;3.20;;
76606;SDS011;65498;50.916;4.698;2023-03-18T07:25:59;5.78;;;2.33;;
76606;SDS011;65498;50.916;4.698;2023-03-18T07:28:26;6.72;;;2.40;;
76606;SDS011;65498;50.916;4.698;2023-03-18T07:30:54;6.60;;;2.42;;
76606;SDS011;65498;50.916;4.698;2023-03-18T07:33:22;7.45;;;3.22;;
76606;SDS011;65498;50.916;4.698;2023-03-18T07:35:50;6.30;;;2.95;;
76606;SDS011;65498;50.916;4.698;2023-03-18T07:38:18;5.92;;;2.58;;
76606;SDS011;65498;50.916;4.698;2023-03-18T07:40:45;6.05;;;2.60;;
76606;SDS011;65498;50.916;4.698;2023-03-18T07:43:13;6.20;;;2.17;;
76606;SDS011;65498;50.916;4.698;2023-03-18T07:45:42;7.03;;;2.83;;
76606;SDS011;65498;50.916;4.698;2023-03-18T07:48:10;5.03;;;2.37;;
76606;SDS011;65498;50.916;4.698;2023-03-18T07:50:37;5.62;;;2.40;;
76606;SDS011;65498;50.916;4.698;2023-03-18T07:53:05;5.70;;;2.20;;
76606;SDS011;65498;50.916;4.698;2023-03-18T07:55:35;7.15;;;2.67;;
76606;SDS011;65498;50.916;4.698;2023-03-18T07:58:02;5.90;;;2.58;;
76606;SDS011;65498;50.916;4.698;2023-03-18T08:00:30;7.22;;;3.52;;
76606;SDS011;65498;50.916;4.698;2023-03-18T08:02:57;6.53;;;2.42;;
76606;SDS011;65498;50.916;4.698;2023-03-18T08:05:25;6.55;;;2.40;;
76606;SDS011;65498;50.916;4.698;2023-03-18T08:07:53;6.37;;;2.50;;
76606;SDS011;65498;50.916;4.698;2023-03-18T08:10:20;5.60;;;2.20;;
76606;SDS011;65498;50.916;4.698;2023-03-18T08:12:48;5.17;;;2.00;;
76606;SDS011;65498;50.916;4.698;2023-03-18T08:15:16;6.28;;;2.65;;
76606;SDS011;65498;50.916;4.698;2023-03-18T08:17:44;6.05;;;2.33;;
76606;SDS011;65498;50.916;4.698;2023-03-18T08:20:12;5.83;;;2.12;;
76606;SDS011;65498;50.916;4.698;2023-03-18T08:22:40;5.62;;;2.12;;
76606;SDS011;65498;50.916;4.698;2023-03-18T08:25:08;6.08;;;2.83;;
76606;SDS011;65498;50.916;4.698;2023-03-18T08:27:36;6.05;;;2.30;;
76606;SDS011;65498;50.916;4.698;2023-03-18T08:30:04;5.30;;;2.00;;
76606;SDS011;65498;50.916;4.698;2023-03-18T08:32:32;5.47;;;2.00;;
76606;SDS011;65498;50.916;4.698;2023-03-18T08:35:00;6.17;;;2.30;;
76606;SDS011;65498;50.916;4.698;2023-03-18T08:37:27;6.60;;;2.33;;
76606;SDS011;65498;50.916;4.698;2023-03-18T08:39:55;5.42;;;2.12;;
76606;SDS011;65498;50.916;4.698;2023-03-18T08:42:23;6.10;;;2.58;;
76606;SDS011;65498;50.916;4.698;2023-03-18T08:44:51;5.92;;;2.30;;
76606;SDS011;65498;50.916;4.698;2023-03-18T08:47:18;5.72;;;2.40;;
76606;SDS011;65498;50.916;4.698;2023-03-18T08:49:46;4.53;;;1.95;;
76606;SDS011;65498;50.916;4.698;2023-03-18T08:52:14;6.55;;;2.30;;
76606;SDS011;65498;50.916;4.698;2023-03-18T08:54:42;5.45;;;2.02;;
76606;SDS011;65498;50.916;4.698;2023-03-18T08:57:10;5.15;;;2.37;;
76606;SDS011;65498;50.916;4.698;2023-03-18T08:59:38;5.58;;;1.95;;
76606;SDS011;65498;50.916;4.698;2023-03-18T09:02:06;4.87;;;2.00;;
76606;SDS011;65498;50.916;4.698;2023-03-18T09:04:35;5.87;;;2.00;;
76606;SDS011;65498;50.916;4.698;2023-03-18T09:07:03;6.03;;;2.45;;
76606;SDS011;65498;50.916;4.698;2023-03-18T09:09:31;6.33;;;2.37;;
76606;SDS011;65498;50.916;4.698;2023-03-18T09:11:58;6.25;;;2.27;;
76606;SDS011;65498;50.916;4.698;2023-03-18T09:14:27;6.30;;;2.22;;
76606;SDS011;65498;50.916;4.698;2023-03-18T09:16:54;5.80;;;2.30;;
76606;SDS011;65498;50.916;4.698;2023-03-18T09:19:22;4.92;;;1.90;;
76606;SDS011;65498;50.916;4.698;2023-03-18T09:21:50;5.72;;;2.42;;
76606;SDS011;65498;50.916;4.698;2023-03-18T09:24:18;4.72;;;2.20;;
76606;SDS011;65498;50.916;4.698;2023-03-18T09:26:46;6.33;;;2.72;;
76606;SDS011;65498;50.916;4.698;2023-03-18T09:29:14;6.28;;;2.33;;
76606;SDS011;65498;50.916;4.698;2023-03-18T09:31:41;4.92;;;2.00;;
76606;SDS011;65498;50.916;4.698;2023-03-18T09:34:09;6.10;;;2.12;;
76606;SDS011;65498;50.916;4.698;2023-03-18T09:36:38;7.05;;;2.50;;
76606;SDS011;65498;50.916;4.698;2023-03-18T09:39:07;5.12;;;2.08;;
76606;SDS011;65498;50.916;4.698;2023-03-18T09:41:42;5.55;;;1.85;;
76606;SDS011;65498;50.916;4.698;2023-03-18T09:44:31;6.97;;;2.27;;
76606;SDS011;65498;50.916;4.698;2023-03-18T09:53:03;6.70;;;2.33;;
76606;SDS011;65498;50.916;4.698;2023-03-18T09:55:43;6.55;;;1.87;;
76606;SDS011;65498;50.916;4.698;2023-03-18T09:58:21;5.53;;;2.10;;
76606;SDS011;65498;50.916;4.698;2023-03-18T10:01:00;5.78;;;1.95;;
76606;SDS011;65498;50.916;4.698;2023-03-18T10:03:31;6.35;;;1.72;;
76606;SDS011;65498;50.916;4.698;2023-03-18T10:11:22;8.35;;;2.35;;
76606;SDS011;65498;50.916;4.698;2023-03-18T10:14:39;6.47;;;2.00;;
76606;SDS011;65498;50.916;4.698;2023-03-18T10:16:22;5.65;;;1.85;;
76606;SDS011;65498;50.916;4.698;2023-03-18T10:18:52;7.08;;;2.33;;
76606;SDS011;65498;50.916;4.698;2023-03-18T10:27:01;7.25;;;2.20;;
76606;SDS011;65498;50.916;4.698;2023-03-18T10:29:30;9.10;;;2.85;;
76606;SDS011;65498;50.916;4.698;2023-03-18T10:32:10;4.65;;;1.87;;
76606;SDS011;65498;50.916;4.698;2023-03-18T10:40:19;7.55;;;2.10;;
76606;SDS011;65498;50.916;4.698;2023-03-18T10:42:48;8.43;;;2.10;;
76606;SDS011;65498;50.916;4.698;2023-03-18T10:45:20;6.05;;;2.12;;
76606;SDS011;65498;50.916;4.698;2023-03-18T10:47:57;5.05;;;1.60;;
76606;SDS011;65498;50.916;4.698;2023-03-18T10:50:44;5.47;;;1.80;;
76606;SDS011;65498;50.916;4.698;2023-03-18T10:53:25;6.83;;;1.70;;
76606;SDS011;65498;50.916;4.698;2023-03-18T10:58:23;4.70;;;1.60;;
76606;SDS011;65498;50.916;4.698;2023-03-18T11:00:54;5.53;;;1.77;;
76606;SDS011;65498;50.916;4.698;2023-03-18T11:03:31;5.33;;;1.80;;
76606;SDS011;65498;50.916;4.698;2023-03-18T11:06:00;4.28;;;1.60;;
76606;SDS011;65498;50.916;4.698;2023-03-18T11:08:30;4.78;;;1.75;;
76606;SDS011;65498;50.916;4.698;2023-03-18T11:13:49;5.58;;;1.80;;
76606;SDS011;65498;50.916;4.698;2023-03-18T11:16:29;7.47;;;2.00;;
76606;SDS011;65498;50.916;4.698;2023-03-18T11:19:24;5.42;;;1.90;;
76606;SDS011;65498;50.916;4.698;2023-03-18T11:24:37;5.65;;;1.67;;
76606;SDS011;65498;50.916;4.698;2023-03-18T11:29:44;5.37;;;2.00;;
76606;SDS011;65498;50.916;4.698;2023-03-18T11:32:30;6.87;;;2.10;;
76606;SDS011;65498;50.916;4.698;2023-03-18T11:35:03;6.20;;;1.85;;
76606;SDS011;65498;50.916;4.698;2023-03-18T11:37:34;4.72;;;1.70;;
76606;SDS011;65498;50.916;4.698;2023-03-18T11:42:46;4.97;;;1.92;;
76606;SDS011;65498;50.916;4.698;2023-03-18T11:45:26;4.25;;;1.40;;
76606;SDS011;65498;50.916;4.698;2023-03-18T11:48:11;4.92;;;1.50;;
76606;SDS011;65498;50.916;4.698;2023-03-18T11:50:56;7.70;;;1.82;;
76606;SDS011;65498;50.916;4.698;2023-03-18T11:53:29;6.05;;;1.95;;
76606;SDS011;65498;50.916;4.698;2023-03-18T12:01:35;6.85;;;1.60;;
76606;SDS011;65498;50.916;4.698;2023-03-18T12:04:07;4.83;;;1.72;;
76606;SDS011;65498;50.916;4.698;2023-03-18T12:06:40;7.47;;;1.35;;
76606;SDS011;65498;50.916;4.698;2023-03-18T12:09:15;3.85;;;1.35;;
76606;SDS011;65498;50.916;4.698;2023-03-18T12:11:57;5.97;;;1.80;;
76606;SDS011;65498;50.916;4.698;2023-03-18T12:17:15;4.28;;;1.40;;
76606;SDS011;65498;50.916;4.698;2023-03-18T12:22:24;4.03;;;1.42;;
76606;SDS011;65498;50.916;4.698;2023-03-18T12:27:38;5.08;;;1.40;;
76606;SDS011;65498;50.916;4.698;2023-03-18T12:30:39;4.42;;;1.50;;
76606;SDS011;65498;50.916;4.698;2023-03-18T12:38:34;4.75;;;1.60;;
76606;SDS011;65498;50.916;4.698;2023-03-18T12:41:04;5.42;;;1.65;;
76606;SDS011;65498;50.916;4.698;2023-03-18T12:46:30;4.97;;;1.30;;
76606;SDS011;65498;50.916;4.698;2023-03-18T12:51:41;4.22;;;1.40;;
76606;SDS011;65498;50.916;4.698;2023-03-18T12:54:22;5.17;;;1.40;;
76606;SDS011;65498;50.916;4.698;2023-03-18T12:56:52;5.22;;;1.67;;
76606;SDS011;65498;50.916;4.698;2023-03-18T12:59:23;5.25;;;1.50;;
76606;SDS011;65498;50.916;4.698;2023-03-18T13:04:37;4.08;;;1.60;;
76606;SDS011;65498;50.916;4.698;2023-03-18T13:07:18;4.12;;;1.27;;
76606;SDS011;65498;50.916;4.698;2023-03-18T13:09:45;8.35;;;1.32;;
76606;SDS011;65498;50.916;4.698;2023-03-18T13:12:19;5.05;;;1.47;;
76606;SDS011;65498;50.916;4.698;2023-03-18T13:14:59;5.00;;;1.80;;
76606;SDS011;65498;50.916;4.698;2023-03-18T13:17:31;4.15;;;1.20;;
76606;SDS011;65498;50.916;4.698;2023-03-18T13:20:18;5.12;;;1.80;;
76606;SDS011;65498;50.916;4.698;2023-03-18T13:22:56;4.15;;;1.50;;
76606;SDS011;65498;50.916;4.698;2023-03-18T13:25:31;4.78;;;1.60;;
76606;SDS011;65498;50.916;4.698;2023-03-18T13:28:06;3.98;;;1.35;;
76606;SDS011;65498;50.916;4.698;2023-03-18T13:30:42;4.83;;;1.22;;
76606;SDS011;65498;50.916;4.698;2023-03-18T13:36:09;6.97;;;1.22;;
76606;SDS011;65498;50.916;4.698;2023-03-18T13:38:44;5.28;;;1.42;;
76606;SDS011;65498;50.916;4.698;2023-03-18T13:44:17;4.47;;;1.32;;
76606;SDS011;65498;50.916;4.698;2023-03-18T13:47:09;3.67;;;1.30;;
76606;SDS011;65498;50.916;4.698;2023-03-18T13:49:29;3.90;;;1.42;;
76606;SDS011;65498;50.916;4.698;2023-03-18T13:51:59;5.25;;;1.30;;
76606;SDS011;65498;50.916;4.698;2023-03-18T13:54:32;3.17;;;1.22;;
76606;SDS011;65498;50.916;4.698;2023-03-18T13:57:15;3.98;;;1.40;;
76606;SDS011;65498;50.916;4.698;2023-03-18T14:00:21;4.08;;;1.40;;
76606;SDS011;65498;50.916;4.698;2023-03-18T14:02:59;3.50;;;1.10;;
76606;SDS011;65498;50.916;4.698;2023-03-18T14:05:37;3.80;;;1.50;;
76606;SDS011;65498;50.916;4.698;2023-03-18T14:13:52;3.08;;;1.02;;
76606;SDS011;65498;50.916;4.698;2023-03-18T14:16:22;3.83;;;1.52;;
76606;SDS011;65498;50.916;4.698;2023-03-18T14:18:55;3.98;;;1.00;;
76606;SDS011;65498;50.916;4.698;2023-03-18T14:21:37;4.00;;;1.25;;
76606;SDS011;65498;50.916;4.698;2023-03-18T14:24:11;3.52;;;1.17;;
76606;SDS011;65498;50.916;4.698;2023-03-18T14:26:41;3.42;;;1.25;;
76606;SDS011;65498;50.916;4.698;2023-03-18T14:37:23;5.30;;;1.47;;
76606;SDS011;65498;50.916;4.698;2023-03-18T14:39:44;3.50;;;1.10;;
76606;SDS011;65498;50.916;4.698;2023-03-18T14:42:24;4.28;;;1.10;;
76606;SDS011;65498;50.916;4.698;2023-03-18T14:45:18;3.25;;;1.22;;
76606;SDS011;65498;50.916;4.698;2023-03-18T14:48:01;4.20;;;1.17;;
76606;SDS011;65498;50.916;4.698;2023-03-18T14:50:37;3.85;;;1.65;;
76606;SDS011;65498;50.916;4.698;2023-03-18T14:53:20;4.28;;;1.20;;
76606;SDS011;65498;50.916;4.698;2023-03-18T14:55:47;4.53;;;1.17;;
76606;SDS011;65498;50.916;4.698;2023-03-18T14:58:17;2.95;;;1.00;;
76606;SDS011;65498;50.916;4.698;2023-03-18T15:00:47;4.65;;;1.27;;
76606;SDS011;65498;50.916;4.698;2023-03-18T15:03:29;3.10;;;1.30;;
76606;SDS011;65498;50.916;4.698;2023-03-18T15:05:59;4.65;;;1.80;;
76606;SDS011;65498;50.916;4.698;2023-03-18T15:08:37;3.25;;;1.20;;
76606;SDS011;65498;50.916;4.698;2023-03-18T15:11:02;3.10;;;1.05;;
76606;SDS011;65498;50.916;4.698;2023-03-18T15:13:32;4.90;;;1.25;;
76606;SDS011;65498;50.916;4.698;2023-03-18T15:16:08;3.50;;;1.10;;
76606;SDS011;65498;50.916;4.698;2023-03-18T15:18:32;3.67;;;0.98;;
76606;SDS011;65498;50.916;4.698;2023-03-18T15:21:02;3.52;;;1.10;;
76606;SDS011;65498;50.916;4.698;2023-03-18T15:23:44;3.00;;;1.00;;
76606;SDS011;65498;50.916;4.698;2023-03-18T15:28:58;6.22;;;1.15;;
76606;SDS011;65498;50.916;4.698;2023-03-18T15:31:28;2.85;;;1.00;;
76606;SDS011;65498;50.916;4.698;2023-03-18T15:36:54;5.78;;;1.30;;
76606;SDS011;65498;50.916;4.698;2023-03-18T15:42:10;4.37;;;1.20;;
76606;SDS011;65498;50.916;4.698;2023-03-18T15:44:42;5.00;;;1.22;;
76606;SDS011;65498;50.916;4.698;2023-03-18T15:47:13;3.27;;;1.00;;
76606;SDS011;65498;50.916;4.698;2023-03-18T15:49:49;3.20;;;1.00;;
76606;SDS011;65498;50.916;4.698;2023-03-18T15:52:22;4.20;;;1.10;;
76606;SDS011;65498;50.916;4.698;2023-03-18T15:54:54;5.22;;;1.10;;
76606;SDS011;65498;50.916;4.698;2023-03-18T15:57:25;2.37;;;1.00;;
76606;SDS011;65498;50.916;4.698;2023-03-18T15:59:56;6.37;;;1.90;;
76606;SDS011;65498;50.916;4.698;2023-03-18T16:02:29;3.75;;;1.45;;
76606;SDS011;65498;50.916;4.698;2023-03-18T16:05:04;4.92;;;1.60;;
76606;SDS011;65498;50.916;4.698;2023-03-18T16:07:33;5.37;;;1.25;;
76606;SDS011;65498;50.916;4.698;2023-03-18T16:10:01;4.55;;;1.20;;
76606;SDS011;65498;50.916;4.698;2023-03-18T16:12:28;4.78;;;1.30;;
76606;SDS011;65498;50.916;4.698;2023-03-18T16:14:57;3.37;;;1.12;;
76606;SDS011;65498;50.916;4.698;2023-03-18T16:17:26;6.90;;;1.40;;
76606;SDS011;65498;50.916;4.698;2023-03-18T16:19:54;5.03;;;1.55;;
76606;SDS011;65498;50.916;4.698;2023-03-18T16:22:22;5.15;;;1.55;;
76606;SDS011;65498;50.916;4.698;2023-03-18T16:24:49;5.22;;;1.50;;
76606;SDS011;65498;50.916;4.698;2023-03-18T16:27:32;4.22;;;1.00;;
76606;SDS011;65498;50.916;4.698;2023-03-18T16:30:00;5.50;;;1.40;;
76606;SDS011;65498;50.916;4.698;2023-03-18T16:32:27;4.92;;;1.20;;
76606;SDS011;65498;50.916;4.698;2023-03-18T16:34:56;4.10;;;1.27;;
76606;SDS011;65498;50.916;4.698;2023-03-18T16:37:24;5.67;;;1.30;;
76606;SDS011;65498;50.916;4.698;2023-03-18T16:39:53;6.42;;;1.40;;
76606;SDS011;65498;50.916;4.698;2023-03-18T16:42:24;6.20;;;1.80;;
76606;SDS011;65498;50.916;4.698;2023-03-18T16:44:52;4.12;;;1.20;;
76606;SDS011;65498;50.916;4.698;2023-03-18T16:47:22;4.28;;;1.40;;